sensor_id;sensor_type;location;lat;lon;timestamp;P1;durP1;ratioP1;P2;durP2;ratioP2
47575;SDS011;33304;52.456;13.328;2023-01-24T00:01:13;0.87;;;0.87;;
47575;SDS011;33304;52.456;13.328;2023-01-24T00:03:40;1.10;;;1.10;;
47575;SDS011;33304;52.456;13.328;2023-01-24T00:06:08;1.87;;;1.67;;
47575;SDS011;33304;52.456;13.328;2023-01-24T00:08:35;1.27;;;1.07;;
47575;SDS011;33304;52.456;13.328;2023-01-24T00:11:02;1.63;;;1.53;;
47575;SDS011;33304;52.456;13.328;2023-01-24T00:13:33;0.80;;;0.80;;
47575;SDS011;33304;52.456;13.328;2023-01-24T00:16:03;1.60;;;1.43;;
47575;SDS011;33304;52.456;13.328;2023-01-24T00:18:34;1.57;;;1.27;;
47575;SDS011;33304;52.456;13.328;2023-01-24T00:21:02;1.20;;;1.10;;
47575;SDS011;33304;52.456;13.328;2023-01-24T00:23:31;1.07;;;1.07;;
47575;SDS011;33304;52.456;13.328;2023-01-24T00:25:58;1.67;;;1.57;;
47575;SDS011;33304;52.456;13.328;2023-01-24T00:28:25;1.50;;;1.33;;
47575;SDS011;33304;52.456;13.328;2023-01-24T00:30:53;2.07;;;1.50;;
47575;SDS011;33304;52.456;13.328;2023-01-24T00:33:20;0.93;;;0.87;;
47575;SDS011;33304;52.456;13.328;2023-01-24T00:35:48;1.77;;;1.67;;
47575;SDS011;33304;52.456;13.328;2023-01-24T00:38:16;3.50;;;1.40;;
47575;SDS011;33304;52.456;13.328;2023-01-24T00:40:43;2.00;;;0.97;;
47575;SDS011;33304;52.456;13.328;2023-01-24T00:43:10;1.77;;;1.10;;
47575;SDS011;33304;52.456;13.328;2023-01-24T00:45:37;2.20;;;2.00;;
47575;SDS011;33304;52.456;13.328;2023-01-24T00:48:07;1.27;;;1.17;;
47575;SDS011;33304;52.456;13.328;2023-01-24T00:50:35;1.50;;;1.40;;
47575;SDS011;33304;52.456;13.328;2023-01-24T00:53:02;1.27;;;1.17;;
47575;SDS011;33304;52.456;13.328;2023-01-24T00:55:30;1.63;;;1.53;;
47575;SDS011;33304;52.456;13.328;2023-01-24T00:57:57;1.20;;;1.10;;
47575;SDS011;33304;52.456;13.328;2023-01-24T01:00:25;1.53;;;1.20;;
47575;SDS011;33304;52.456;13.328;2023-01-24T01:02:52;1.30;;;1.27;;
47575;SDS011;33304;52.456;13.328;2023-01-24T01:05:20;2.00;;;1.80;;
47575;SDS011;33304;52.456;13.328;2023-01-24T01:07:47;2.57;;;2.37;;
47575;SDS011;33304;52.456;13.328;2023-01-24T01:10:14;1.43;;;1.33;;
47575;SDS011;33304;52.456;13.328;2023-01-24T01:12:42;1.20;;;1.17;;
47575;SDS011;33304;52.456;13.328;2023-01-24T01:15:09;1.20;;;1.17;;
47575;SDS011;33304;52.456;13.328;2023-01-24T01:17:37;1.63;;;1.53;;
47575;SDS011;33304;52.456;13.328;2023-01-24T01:20:04;1.47;;;1.37;;
47575;SDS011;33304;52.456;13.328;2023-01-24T01:22:34;1.60;;;1.50;;
47575;SDS011;33304;52.456;13.328;2023-01-24T01:25:01;0.97;;;0.97;;
47575;SDS011;33304;52.456;13.328;2023-01-24T01:27:28;1.10;;;1.10;;
47575;SDS011;33304;52.456;13.328;2023-01-24T01:29:55;0.63;;;0.63;;
47575;SDS011;33304;52.456;13.328;2023-01-24T01:32:22;1.40;;;1.30;;
47575;SDS011;33304;52.456;13.328;2023-01-24T01:34:49;0.87;;;0.87;;
47575;SDS011;33304;52.456;13.328;2023-01-24T01:37:16;1.03;;;1.03;;
47575;SDS011;33304;52.456;13.328;2023-01-24T01:39:44;1.67;;;1.23;;
47575;SDS011;33304;52.456;13.328;2023-01-24T01:42:12;1.33;;;1.23;;
47575;SDS011;33304;52.456;13.328;2023-01-24T01:44:40;1.30;;;1.10;;
47575;SDS011;33304;52.456;13.328;2023-01-24T01:47:15;1.20;;;0.93;;
47575;SDS011;33304;52.456;13.328;2023-01-24T01:49:46;1.20;;;1.20;;
47575;SDS011;33304;52.456;13.328;2023-01-24T01:52:21;1.60;;;1.20;;
47575;SDS011;33304;52.456;13.328;2023-01-24T01:54:52;1.20;;;1.10;;
47575;SDS011;33304;52.456;13.328;2023-01-24T01:57:24;1.90;;;1.10;;
47575;SDS011;33304;52.456;13.328;2023-01-24T01:59:56;0.87;;;0.80;;
47575;SDS011;33304;52.456;13.328;2023-01-24T02:02:37;1.20;;;1.10;;
47575;SDS011;33304;52.456;13.328;2023-01-24T02:05:06;0.93;;;0.93;;
47575;SDS011;33304;52.456;13.328;2023-01-24T02:07:38;0.97;;;0.90;;
47575;SDS011;33304;52.456;13.328;2023-01-24T02:10:10;1.17;;;1.17;;
47575;SDS011;33304;52.456;13.328;2023-01-24T02:12:38;1.23;;;1.13;;
47575;SDS011;33304;52.456;13.328;2023-01-24T02:15:14;1.23;;;1.23;;
47575;SDS011;33304;52.456;13.328;2023-01-24T02:18:02;0.87;;;0.87;;
47575;SDS011;33304;52.456;13.328;2023-01-24T02:20:32;1.67;;;1.03;;
47575;SDS011;33304;52.456;13.328;2023-01-24T02:23:08;2.13;;;1.10;;
47575;SDS011;33304;52.456;13.328;2023-01-24T02:25:47;4.00;;;0.60;;
47575;SDS011;33304;52.456;13.328;2023-01-24T02:28:18;1.60;;;1.50;;
47575;SDS011;33304;52.456;13.328;2023-01-24T02:30:46;1.83;;;1.47;;
47575;SDS011;33304;52.456;13.328;2023-01-24T02:33:14;2.43;;;1.40;;
47575;SDS011;33304;52.456;13.328;2023-01-24T02:35:44;1.43;;;1.10;;
47575;SDS011;33304;52.456;13.328;2023-01-24T02:38:13;1.07;;;1.00;;
47575;SDS011;33304;52.456;13.328;2023-01-24T02:40:44;0.90;;;0.90;;
47575;SDS011;33304;52.456;13.328;2023-01-24T02:43:12;0.93;;;0.93;;
47575;SDS011;33304;52.456;13.328;2023-01-24T02:45:44;1.17;;;0.80;;
47575;SDS011;33304;52.456;13.328;2023-01-24T02:48:11;1.03;;;1.03;;
47575;SDS011;33304;52.456;13.328;2023-01-24T02:50:38;0.93;;;0.93;;
47575;SDS011;33304;52.456;13.328;2023-01-24T02:53:19;1.17;;;0.97;;
47575;SDS011;33304;52.456;13.328;2023-01-24T02:55:56;0.60;;;0.60;;
47575;SDS011;33304;52.456;13.328;2023-01-24T02:58:41;0.50;;;0.50;;
47575;SDS011;33304;52.456;13.328;2023-01-24T03:01:10;0.53;;;0.53;;
47575;SDS011;33304;52.456;13.328;2023-01-24T03:03:40;0.50;;;0.50;;
47575;SDS011;33304;52.456;13.328;2023-01-24T03:06:08;1.37;;;1.00;;
47575;SDS011;33304;52.456;13.328;2023-01-24T03:08:36;0.80;;;0.80;;
47575;SDS011;33304;52.456;13.328;2023-01-24T03:11:11;1.00;;;1.00;;
47575;SDS011;33304;52.456;13.328;2023-01-24T03:13:39;0.50;;;0.40;;
47575;SDS011;33304;52.456;13.328;2023-01-24T03:16:25;0.60;;;0.60;;
47575;SDS011;33304;52.456;13.328;2023-01-24T03:19:10;0.73;;;0.73;;
47575;SDS011;33304;52.456;13.328;2023-01-24T03:21:55;0.70;;;0.70;;
47575;SDS011;33304;52.456;13.328;2023-01-24T03:24:40;0.73;;;0.70;;
47575;SDS011;33304;52.456;13.328;2023-01-24T03:27:25;0.70;;;0.70;;
47575;SDS011;33304;52.456;13.328;2023-01-24T03:30:13;0.67;;;0.67;;
47575;SDS011;33304;52.456;13.328;2023-01-24T03:33:00;0.73;;;0.73;;
47575;SDS011;33304;52.456;13.328;2023-01-24T03:35:47;0.57;;;0.57;;
47575;SDS011;33304;52.456;13.328;2023-01-24T03:38:20;1.30;;;1.20;;
47575;SDS011;33304;52.456;13.328;2023-01-24T03:41:06;1.00;;;0.80;;
47575;SDS011;33304;52.456;13.328;2023-01-24T03:43:34;0.70;;;0.70;;
47575;SDS011;33304;52.456;13.328;2023-01-24T03:46:02;0.57;;;0.57;;
47575;SDS011;33304;52.456;13.328;2023-01-24T03:48:44;0.87;;;0.87;;
47575;SDS011;33304;52.456;13.328;2023-01-24T03:51:12;0.47;;;0.47;;
47575;SDS011;33304;52.456;13.328;2023-01-24T03:53:57;0.73;;;0.73;;
47575;SDS011;33304;52.456;13.328;2023-01-24T03:56:30;0.80;;;0.80;;
47575;SDS011;33304;52.456;13.328;2023-01-24T03:58:59;1.10;;;1.10;;
47575;SDS011;33304;52.456;13.328;2023-01-24T04:01:30;1.43;;;0.80;;
47575;SDS011;33304;52.456;13.328;2023-01-24T04:04:19;0.63;;;0.63;;
47575;SDS011;33304;52.456;13.328;2023-01-24T04:06:46;0.50;;;0.50;;
47575;SDS011;33304;52.456;13.328;2023-01-24T04:09:14;0.53;;;0.53;;
47575;SDS011;33304;52.456;13.328;2023-01-24T04:11:42;0.47;;;0.47;;
47575;SDS011;33304;52.456;13.328;2023-01-24T04:14:13;0.70;;;0.70;;
47575;SDS011;33304;52.456;13.328;2023-01-24T04:16:55;0.53;;;0.53;;
47575;SDS011;33304;52.456;13.328;2023-01-24T04:19:40;0.60;;;0.60;;
47575;SDS011;33304;52.456;13.328;2023-01-24T04:22:08;1.27;;;1.17;;
47575;SDS011;33304;52.456;13.328;2023-01-24T04:24:37;0.40;;;0.40;;
47575;SDS011;33304;52.456;13.328;2023-01-24T04:27:04;0.77;;;0.53;;
47575;SDS011;33304;52.456;13.328;2023-01-24T04:29:48;0.50;;;0.50;;
47575;SDS011;33304;52.456;13.328;2023-01-24T04:32:15;0.63;;;0.63;;
47575;SDS011;33304;52.456;13.328;2023-01-24T04:34:58;0.77;;;0.77;;
47575;SDS011;33304;52.456;13.328;2023-01-24T04:37:58;1.10;;;0.80;;
47575;SDS011;33304;52.456;13.328;2023-01-24T04:40:38;0.43;;;0.43;;
47575;SDS011;33304;52.456;13.328;2023-01-24T04:43:06;0.50;;;0.50;;
47575;SDS011;33304;52.456;13.328;2023-01-24T04:45:34;0.50;;;0.50;;
47575;SDS011;33304;52.456;13.328;2023-01-24T04:48:01;1.20;;;0.93;;
47575;SDS011;33304;52.456;13.328;2023-01-24T04:50:30;1.13;;;0.73;;
47575;SDS011;33304;52.456;13.328;2023-01-24T04:52:57;0.60;;;0.60;;
47575;SDS011;33304;52.456;13.328;2023-01-24T04:55:24;0.67;;;0.67;;
47575;SDS011;33304;52.456;13.328;2023-01-24T04:57:52;1.00;;;1.00;;
47575;SDS011;33304;52.456;13.328;2023-01-24T05:00:19;1.03;;;1.03;;
47575;SDS011;33304;52.456;13.328;2023-01-24T05:02:46;0.60;;;0.60;;
47575;SDS011;33304;52.456;13.328;2023-01-24T05:05:14;2.00;;;0.60;;
47575;SDS011;33304;52.456;13.328;2023-01-24T05:07:43;0.67;;;0.67;;
47575;SDS011;33304;52.456;13.328;2023-01-24T05:10:15;0.50;;;0.50;;
47575;SDS011;33304;52.456;13.328;2023-01-24T05:12:46;0.97;;;0.50;;
47575;SDS011;33304;52.456;13.328;2023-01-24T05:15:18;0.80;;;0.80;;
47575;SDS011;33304;52.456;13.328;2023-01-24T05:17:47;0.73;;;0.67;;
47575;SDS011;33304;52.456;13.328;2023-01-24T05:20:18;1.00;;;0.97;;
47575;SDS011;33304;52.456;13.328;2023-01-24T05:22:46;0.90;;;0.90;;
47575;SDS011;33304;52.456;13.328;2023-01-24T05:25:15;0.70;;;0.70;;
47575;SDS011;33304;52.456;13.328;2023-01-24T05:27:43;1.03;;;0.93;;
47575;SDS011;33304;52.456;13.328;2023-01-24T05:30:11;0.87;;;0.87;;
47575;SDS011;33304;52.456;13.328;2023-01-24T05:32:39;0.80;;;0.80;;
47575;SDS011;33304;52.456;13.328;2023-01-24T05:35:07;0.73;;;0.73;;
47575;SDS011;33304;52.456;13.328;2023-01-24T05:37:35;0.50;;;0.50;;
47575;SDS011;33304;52.456;13.328;2023-01-24T05:40:05;0.80;;;0.80;;
47575;SDS011;33304;52.456;13.328;2023-01-24T05:43:39;1.20;;;1.20;;
47575;SDS011;33304;52.456;13.328;2023-01-24T05:45:39;0.60;;;0.60;;
47575;SDS011;33304;52.456;13.328;2023-01-24T05:48:07;0.80;;;0.80;;
47575;SDS011;33304;52.456;13.328;2023-01-24T05:50:35;1.30;;;1.20;;
47575;SDS011;33304;52.456;13.328;2023-01-24T05:53:09;0.77;;;0.77;;
47575;SDS011;33304;52.456;13.328;2023-01-24T05:55:38;0.80;;;0.80;;
47575;SDS011;33304;52.456;13.328;2023-01-24T05:58:05;1.00;;;0.90;;
47575;SDS011;33304;52.456;13.328;2023-01-24T06:00:36;0.90;;;0.77;;
47575;SDS011;33304;52.456;13.328;2023-01-24T06:03:22;1.30;;;1.20;;
47575;SDS011;33304;52.456;13.328;2023-01-24T06:05:52;0.77;;;0.77;;
47575;SDS011;33304;52.456;13.328;2023-01-24T06:08:22;0.80;;;0.70;;
47575;SDS011;33304;52.456;13.328;2023-01-24T06:10:51;0.47;;;0.47;;
47575;SDS011;33304;52.456;13.328;2023-01-24T06:13:20;0.90;;;0.90;;
47575;SDS011;33304;52.456;13.328;2023-01-24T06:15:48;0.50;;;0.50;;
47575;SDS011;33304;52.456;13.328;2023-01-24T06:18:16;1.17;;;1.07;;
47575;SDS011;33304;52.456;13.328;2023-01-24T06:20:46;0.83;;;0.83;;
47575;SDS011;33304;52.456;13.328;2023-01-24T06:23:17;1.03;;;0.90;;
47575;SDS011;33304;52.456;13.328;2023-01-24T06:25:52;1.27;;;0.87;;
47575;SDS011;33304;52.456;13.328;2023-01-24T06:28:20;0.70;;;0.70;;
47575;SDS011;33304;52.456;13.328;2023-01-24T06:30:49;0.77;;;0.77;;
47575;SDS011;33304;52.456;13.328;2023-01-24T06:33:25;0.97;;;0.97;;
47575;SDS011;33304;52.456;13.328;2023-01-24T06:36:18;0.60;;;0.60;;
47575;SDS011;33304;52.456;13.328;2023-01-24T06:38:59;1.50;;;1.40;;
47575;SDS011;33304;52.456;13.328;2023-01-24T06:41:29;1.20;;;1.10;;
47575;SDS011;33304;52.456;13.328;2023-01-24T06:43:56;0.97;;;0.97;;
47575;SDS011;33304;52.456;13.328;2023-01-24T06:46:23;0.90;;;0.90;;
47575;SDS011;33304;52.456;13.328;2023-01-24T06:48:51;1.30;;;1.03;;
47575;SDS011;33304;52.456;13.328;2023-01-24T06:51:18;1.40;;;1.30;;
47575;SDS011;33304;52.456;13.328;2023-01-24T06:53:45;0.90;;;0.90;;
47575;SDS011;33304;52.456;13.328;2023-01-24T06:56:12;2.03;;;0.87;;
47575;SDS011;33304;52.456;13.328;2023-01-24T06:58:40;2.67;;;1.30;;
47575;SDS011;33304;52.456;13.328;2023-01-24T07:01:07;0.63;;;0.63;;
47575;SDS011;33304;52.456;13.328;2023-01-24T07:03:34;1.87;;;0.93;;
47575;SDS011;33304;52.456;13.328;2023-01-24T07:06:02;0.80;;;0.80;;
47575;SDS011;33304;52.456;13.328;2023-01-24T07:08:29;0.77;;;0.77;;
47575;SDS011;33304;52.456;13.328;2023-01-24T07:10:56;0.80;;;0.80;;
47575;SDS011;33304;52.456;13.328;2023-01-24T07:13:23;0.77;;;0.77;;
47575;SDS011;33304;52.456;13.328;2023-01-24T07:15:52;1.47;;;0.97;;
47575;SDS011;33304;52.456;13.328;2023-01-24T07:18:19;0.73;;;0.73;;
47575;SDS011;33304;52.456;13.328;2023-01-24T07:20:47;0.73;;;0.73;;
47575;SDS011;33304;52.456;13.328;2023-01-24T07:23:21;1.23;;;1.17;;
47575;SDS011;33304;52.456;13.328;2023-01-24T07:25:50;0.60;;;0.60;;
47575;SDS011;33304;52.456;13.328;2023-01-24T07:28:18;1.20;;;1.03;;
47575;SDS011;33304;52.456;13.328;2023-01-24T07:30:46;0.60;;;0.60;;
47575;SDS011;33304;52.456;13.328;2023-01-24T07:33:15;1.97;;;1.13;;
47575;SDS011;33304;52.456;13.328;2023-01-24T07:35:42;0.80;;;0.80;;
47575;SDS011;33304;52.456;13.328;2023-01-24T07:38:10;1.40;;;1.30;;
47575;SDS011;33304;52.456;13.328;2023-01-24T07:40:38;1.10;;;1.00;;
47575;SDS011;33304;52.456;13.328;2023-01-24T07:43:05;2.00;;;1.67;;
47575;SDS011;33304;52.456;13.328;2023-01-24T07:45:33;0.80;;;0.80;;
47575;SDS011;33304;52.456;13.328;2023-01-24T07:48:04;1.37;;;1.27;;
47575;SDS011;33304;52.456;13.328;2023-01-24T07:50:33;1.27;;;1.17;;
47575;SDS011;33304;52.456;13.328;2023-01-24T07:53:01;2.13;;;1.63;;
47575;SDS011;33304;52.456;13.328;2023-01-24T07:55:28;1.63;;;1.50;;
47575;SDS011;33304;52.456;13.328;2023-01-24T07:57:59;1.23;;;1.23;;
47575;SDS011;33304;52.456;13.328;2023-01-24T08:00:27;0.87;;;0.80;;
47575;SDS011;33304;52.456;13.328;2023-01-24T08:02:55;1.30;;;1.20;;
47575;SDS011;33304;52.456;13.328;2023-01-24T08:05:22;0.93;;;0.93;;
47575;SDS011;33304;52.456;13.328;2023-01-24T08:07:51;0.80;;;0.80;;
47575;SDS011;33304;52.456;13.328;2023-01-24T08:10:19;1.90;;;1.30;;
47575;SDS011;33304;52.456;13.328;2023-01-24T08:12:47;1.07;;;0.90;;
47575;SDS011;33304;52.456;13.328;2023-01-24T08:15:15;0.80;;;0.80;;
47575;SDS011;33304;52.456;13.328;2023-01-24T08:17:42;0.70;;;0.70;;
47575;SDS011;33304;52.456;13.328;2023-01-24T08:20:10;1.10;;;0.87;;
47575;SDS011;33304;52.456;13.328;2023-01-24T08:22:37;1.40;;;1.27;;
47575;SDS011;33304;52.456;13.328;2023-01-24T08:25:06;3.53;;;1.27;;
47575;SDS011;33304;52.456;13.328;2023-01-24T08:27:34;1.30;;;1.20;;
47575;SDS011;33304;52.456;13.328;2023-01-24T08:30:02;0.70;;;0.70;;
47575;SDS011;33304;52.456;13.328;2023-01-24T08:32:29;2.17;;;2.00;;
47575;SDS011;33304;52.456;13.328;2023-01-24T08:34:58;1.07;;;1.07;;
47575;SDS011;33304;52.456;13.328;2023-01-24T08:37:25;3.27;;;1.50;;
47575;SDS011;33304;52.456;13.328;2023-01-24T08:39:52;1.97;;;1.87;;
47575;SDS011;33304;52.456;13.328;2023-01-24T08:42:23;2.13;;;1.97;;
47575;SDS011;33304;52.456;13.328;2023-01-24T08:44:50;1.50;;;1.40;;
47575;SDS011;33304;52.456;13.328;2023-01-24T08:47:17;2.33;;;2.03;;
47575;SDS011;33304;52.456;13.328;2023-01-24T08:49:45;1.70;;;1.60;;
47575;SDS011;33304;52.456;13.328;2023-01-24T08:52:12;1.13;;;1.03;;
47575;SDS011;33304;52.456;13.328;2023-01-24T08:54:39;4.03;;;2.87;;
47575;SDS011;33304;52.456;13.328;2023-01-24T08:57:06;2.17;;;2.07;;
47575;SDS011;33304;52.456;13.328;2023-01-24T08:59:34;4.43;;;3.30;;
47575;SDS011;33304;52.456;13.328;2023-01-24T09:02:01;2.40;;;1.87;;
47575;SDS011;33304;52.456;13.328;2023-01-24T09:04:30;3.43;;;2.20;;
47575;SDS011;33304;52.456;13.328;2023-01-24T09:06:57;1.13;;;1.07;;
47575;SDS011;33304;52.456;13.328;2023-01-24T09:09:24;4.47;;;2.17;;
47575;SDS011;33304;52.456;13.328;2023-01-24T09:11:51;1.30;;;1.27;;
47575;SDS011;33304;52.456;13.328;2023-01-24T09:14:19;4.93;;;2.00;;
47575;SDS011;33304;52.456;13.328;2023-01-24T09:16:47;8.27;;;1.93;;
47575;SDS011;33304;52.456;13.328;2023-01-24T09:19:14;3.27;;;2.53;;
47575;SDS011;33304;52.456;13.328;2023-01-24T09:21:41;3.17;;;2.87;;
47575;SDS011;33304;52.456;13.328;2023-01-24T09:24:09;2.50;;;2.30;;
47575;SDS011;33304;52.456;13.328;2023-01-24T09:26:36;1.93;;;1.50;;
47575;SDS011;33304;52.456;13.328;2023-01-24T09:29:04;2.10;;;2.00;;
47575;SDS011;33304;52.456;13.328;2023-01-24T09:31:32;1.27;;;1.17;;
47575;SDS011;33304;52.456;13.328;2023-01-24T09:34:00;6.50;;;3.57;;
47575;SDS011;33304;52.456;13.328;2023-01-24T09:36:27;2.97;;;2.70;;
47575;SDS011;33304;52.456;13.328;2023-01-24T09:38:55;2.07;;;1.73;;
47575;SDS011;33304;52.456;13.328;2023-01-24T09:41:25;2.40;;;1.67;;
47575;SDS011;33304;52.456;13.328;2023-01-24T09:44:02;2.13;;;1.93;;
47575;SDS011;33304;52.456;13.328;2023-01-24T09:46:35;2.13;;;1.97;;
47575;SDS011;33304;52.456;13.328;2023-01-24T09:49:09;5.33;;;2.27;;
47575;SDS011;33304;52.456;13.328;2023-01-24T09:51:43;2.43;;;2.23;;
47575;SDS011;33304;52.456;13.328;2023-01-24T09:54:15;1.53;;;1.43;;
47575;SDS011;33304;52.456;13.328;2023-01-24T09:56:48;2.67;;;1.87;;
47575;SDS011;33304;52.456;13.328;2023-01-24T09:59:18;3.37;;;2.57;;
47575;SDS011;33304;52.456;13.328;2023-01-24T10:01:48;8.00;;;2.77;;
47575;SDS011;33304;52.456;13.328;2023-01-24T10:04:18;4.63;;;2.47;;
47575;SDS011;33304;52.456;13.328;2023-01-24T10:06:52;5.23;;;2.57;;
47575;SDS011;33304;52.456;13.328;2023-01-24T10:09:43;5.77;;;2.73;;
47575;SDS011;33304;52.456;13.328;2023-01-24T10:12:21;3.17;;;2.40;;
47575;SDS011;33304;52.456;13.328;2023-01-24T10:15:05;3.73;;;2.97;;
47575;SDS011;33304;52.456;13.328;2023-01-24T10:17:49;2.50;;;1.63;;
47575;SDS011;33304;52.456;13.328;2023-01-24T10:23:14;3.77;;;2.37;;
47575;SDS011;33304;52.456;13.328;2023-01-24T10:25:54;8.07;;;2.70;;
47575;SDS011;33304;52.456;13.328;2023-01-24T10:28:26;3.80;;;3.40;;
47575;SDS011;33304;52.456;13.328;2023-01-24T10:30:56;4.23;;;2.90;;
47575;SDS011;33304;52.456;13.328;2023-01-24T10:33:31;6.50;;;2.03;;
47575;SDS011;33304;52.456;13.328;2023-01-24T10:36:05;4.60;;;2.90;;
47575;SDS011;33304;52.456;13.328;2023-01-24T10:38:36;3.30;;;3.00;;
47575;SDS011;33304;52.456;13.328;2023-01-24T10:41:13;4.67;;;2.53;;
47575;SDS011;33304;52.456;13.328;2023-01-24T10:43:48;6.93;;;4.93;;
47575;SDS011;33304;52.456;13.328;2023-01-24T10:46:25;3.90;;;2.43;;
47575;SDS011;33304;52.456;13.328;2023-01-24T10:49:04;3.63;;;1.77;;
47575;SDS011;33304;52.456;13.328;2023-01-24T10:51:38;1.73;;;1.63;;
47575;SDS011;33304;52.456;13.328;2023-01-24T10:54:10;3.97;;;2.70;;
47575;SDS011;33304;52.456;13.328;2023-01-24T10:56:46;3.53;;;3.23;;
47575;SDS011;33304;52.456;13.328;2023-01-24T10:59:13;1.97;;;1.87;;
47575;SDS011;33304;52.456;13.328;2023-01-24T11:01:43;3.37;;;2.57;;
47575;SDS011;33304;52.456;13.328;2023-01-24T11:04:13;5.43;;;2.50;;
47575;SDS011;33304;52.456;13.328;2023-01-24T11:06:47;8.77;;;4.03;;
47575;SDS011;33304;52.456;13.328;2023-01-24T11:09:17;2.10;;;1.90;;
47575;SDS011;33304;52.456;13.328;2023-01-24T11:11:46;4.07;;;2.80;;
47575;SDS011;33304;52.456;13.328;2023-01-24T11:14:16;4.30;;;3.33;;
47575;SDS011;33304;52.456;13.328;2023-01-24T11:16:47;2.43;;;2.23;;
47575;SDS011;33304;52.456;13.328;2023-01-24T11:19:25;3.87;;;3.47;;
47575;SDS011;33304;52.456;13.328;2023-01-24T11:21:56;2.43;;;2.23;;
47575;SDS011;33304;52.456;13.328;2023-01-24T11:24:25;3.97;;;2.80;;
47575;SDS011;33304;52.456;13.328;2023-01-24T11:26:55;3.50;;;3.10;;
47575;SDS011;33304;52.456;13.328;2023-01-24T11:29:24;2.33;;;2.03;;
47575;SDS011;33304;52.456;13.328;2023-01-24T11:31:52;3.40;;;2.23;;
47575;SDS011;33304;52.456;13.328;2023-01-24T11:34:28;5.23;;;3.40;;
47575;SDS011;33304;52.456;13.328;2023-01-24T11:37:10;4.53;;;4.00;;
47575;SDS011;33304;52.456;13.328;2023-01-24T11:39:49;5.03;;;2.33;;
47575;SDS011;33304;52.456;13.328;2023-01-24T11:42:26;2.67;;;2.47;;
47575;SDS011;33304;52.456;13.328;2023-01-24T11:45:03;3.93;;;2.80;;
47575;SDS011;33304;52.456;13.328;2023-01-24T11:47:45;2.33;;;2.13;;
47575;SDS011;33304;52.456;13.328;2023-01-24T11:50:26;6.10;;;3.97;;
47575;SDS011;33304;52.456;13.328;2023-01-24T11:53:08;3.23;;;3.00;;
47575;SDS011;33304;52.456;13.328;2023-01-24T11:55:58;6.83;;;3.57;;
47575;SDS011;33304;52.456;13.328;2023-01-24T11:58:35;3.80;;;3.50;;
47575;SDS011;33304;52.456;13.328;2023-01-24T12:01:12;3.67;;;3.37;;
47575;SDS011;33304;52.456;13.328;2023-01-24T12:03:48;3.50;;;2.47;;
47575;SDS011;33304;52.456;13.328;2023-01-24T12:06:36;1.50;;;1.37;;
47575;SDS011;33304;52.456;13.328;2023-01-24T12:09:13;6.23;;;2.57;;
47575;SDS011;33304;52.456;13.328;2023-01-24T12:11:47;3.03;;;1.50;;
47575;SDS011;33304;52.456;13.328;2023-01-24T12:14:25;3.03;;;2.83;;
47575;SDS011;33304;52.456;13.328;2023-01-24T12:17:07;1.90;;;1.73;;
47575;SDS011;33304;52.456;13.328;2023-01-24T12:19:49;2.87;;;2.10;;
47575;SDS011;33304;52.456;13.328;2023-01-24T12:22:28;1.90;;;1.80;;
47575;SDS011;33304;52.456;13.328;2023-01-24T12:25:00;3.07;;;2.83;;
47575;SDS011;33304;52.456;13.328;2023-01-24T12:27:31;5.27;;;3.13;;
47575;SDS011;33304;52.456;13.328;2023-01-24T12:30:02;2.93;;;2.47;;
47575;SDS011;33304;52.456;13.328;2023-01-24T12:32:34;2.47;;;2.23;;
47575;SDS011;33304;52.456;13.328;2023-01-24T12:35:08;3.00;;;2.70;;
47575;SDS011;33304;52.456;13.328;2023-01-24T12:37:41;2.63;;;1.80;;
47575;SDS011;33304;52.456;13.328;2023-01-24T12:40:18;3.33;;;2.03;;
47575;SDS011;33304;52.456;13.328;2023-01-24T12:42:52;2.27;;;2.00;;
47575;SDS011;33304;52.456;13.328;2023-01-24T12:45:25;2.77;;;2.57;;
47575;SDS011;33304;52.456;13.328;2023-01-24T12:47:56;2.33;;;2.13;;
47575;SDS011;33304;52.456;13.328;2023-01-24T12:50:27;1.50;;;1.33;;
47575;SDS011;33304;52.456;13.328;2023-01-24T12:53:04;2.13;;;1.73;;
47575;SDS011;33304;52.456;13.328;2023-01-24T12:55:39;2.27;;;2.10;;
47575;SDS011;33304;52.456;13.328;2023-01-24T12:58:13;3.30;;;2.50;;
47575;SDS011;33304;52.456;13.328;2023-01-24T13:00:46;1.47;;;1.40;;
47575;SDS011;33304;52.456;13.328;2023-01-24T13:03:34;4.53;;;2.83;;
47575;SDS011;33304;52.456;13.328;2023-01-24T13:06:13;2.23;;;1.87;;
47575;SDS011;33304;52.456;13.328;2023-01-24T13:08:50;1.70;;;1.60;;
47575;SDS011;33304;52.456;13.328;2023-01-24T13:11:25;2.87;;;2.03;;
47575;SDS011;33304;52.456;13.328;2023-01-24T13:13:57;1.87;;;1.77;;
47575;SDS011;33304;52.456;13.328;2023-01-24T13:16:43;2.50;;;1.77;;
47575;SDS011;33304;52.456;13.328;2023-01-24T13:19:26;2.73;;;2.40;;
47575;SDS011;33304;52.456;13.328;2023-01-24T13:22:05;2.07;;;1.60;;
47575;SDS011;33304;52.456;13.328;2023-01-24T13:24:51;2.53;;;2.13;;
47575;SDS011;33304;52.456;13.328;2023-01-24T13:27:31;4.87;;;2.40;;
47575;SDS011;33304;52.456;13.328;2023-01-24T13:30:11;3.50;;;2.17;;
47575;SDS011;33304;52.456;13.328;2023-01-24T13:32:49;2.13;;;1.53;;
47575;SDS011;33304;52.456;13.328;2023-01-24T13:35:20;5.00;;;3.13;;
47575;SDS011;33304;52.456;13.328;2023-01-24T13:37:49;3.40;;;2.97;;
47575;SDS011;33304;52.456;13.328;2023-01-24T13:40:20;2.53;;;2.33;;
47575;SDS011;33304;52.456;13.328;2023-01-24T13:42:51;5.90;;;2.23;;
47575;SDS011;33304;52.456;13.328;2023-01-24T13:48:42;2.97;;;1.77;;
47575;SDS011;33304;52.456;13.328;2023-01-24T13:51:30;4.60;;;2.23;;
47575;SDS011;33304;52.456;13.328;2023-01-24T13:54:15;2.63;;;2.10;;
47575;SDS011;33304;52.456;13.328;2023-01-24T13:59:57;1.77;;;1.67;;
47575;SDS011;33304;52.456;13.328;2023-01-24T14:02:38;1.50;;;1.40;;
47575;SDS011;33304;52.456;13.328;2023-01-24T14:08:01;1.47;;;1.37;;
47575;SDS011;33304;52.456;13.328;2023-01-24T14:10:33;9.77;;;3.17;;
47575;SDS011;33304;52.456;13.328;2023-01-24T14:13:01;2.43;;;2.03;;
47575;SDS011;33304;52.456;13.328;2023-01-24T14:15:34;1.80;;;1.70;;
47575;SDS011;33304;52.456;13.328;2023-01-24T14:18:32;2.37;;;1.90;;
47575;SDS011;33304;52.456;13.328;2023-01-24T14:21:13;2.33;;;1.83;;
47575;SDS011;33304;52.456;13.328;2023-01-24T14:23:41;3.50;;;3.20;;
47575;SDS011;33304;52.456;13.328;2023-01-24T14:26:13;1.80;;;1.70;;
47575;SDS011;33304;52.456;13.328;2023-01-24T14:28:42;7.87;;;2.37;;
47575;SDS011;33304;52.456;13.328;2023-01-24T14:31:18;2.00;;;1.40;;
47575;SDS011;33304;52.456;13.328;2023-01-24T14:33:51;1.53;;;1.43;;
47575;SDS011;33304;52.456;13.328;2023-01-24T14:36:28;1.67;;;1.57;;
47575;SDS011;33304;52.456;13.328;2023-01-24T14:41:46;2.17;;;2.07;;
47575;SDS011;33304;52.456;13.328;2023-01-24T14:44:18;1.67;;;1.57;;
47575;SDS011;33304;52.456;13.328;2023-01-24T14:46:51;1.63;;;1.53;;
47575;SDS011;33304;52.456;13.328;2023-01-24T14:49:29;2.70;;;2.50;;
47575;SDS011;33304;52.456;13.328;2023-01-24T14:51:58;2.57;;;1.97;;
47575;SDS011;33304;52.456;13.328;2023-01-24T14:54:25;1.73;;;1.63;;
47575;SDS011;33304;52.456;13.328;2023-01-24T14:56:53;3.97;;;2.13;;
47575;SDS011;33304;52.456;13.328;2023-01-24T14:59:20;2.40;;;2.20;;
47575;SDS011;33304;52.456;13.328;2023-01-24T15:01:49;1.47;;;1.30;;
47575;SDS011;33304;52.456;13.328;2023-01-24T15:04:22;2.57;;;2.37;;
47575;SDS011;33304;52.456;13.328;2023-01-24T15:07:04;1.93;;;1.70;;
47575;SDS011;33304;52.456;13.328;2023-01-24T15:09:32;1.90;;;1.80;;
47575;SDS011;33304;52.456;13.328;2023-01-24T15:12:10;2.07;;;1.50;;
47575;SDS011;33304;52.456;13.328;2023-01-24T15:14:48;1.40;;;1.30;;
47575;SDS011;33304;52.456;13.328;2023-01-24T15:17:17;1.63;;;1.43;;